Airfield :
LOGIN :

Register | Disclaimer

   EN    FR    IT 

 










Legend :    VFR   Marginal VFR   IFR   Intensive IFR   Very Intensive IFR
Visi :
Ceiling :
>= 8 km
>= 3000ft
5 to 8 km
1000 to 3000 ft
1500m to 5 km
500 to 1000 ft
800 to 1500m
200 to 500 ft
< 800m
< 200 ft
Symbols :   Thunderstorms  Fog  Heavy snow  Heavy precipitations  Wind > 20 kt
SIGMETs :     Misc.  Thunderstorms  Icing  Turbulence  Mountain Waves  Volcanic Ashes







- Airport Elevation : 915 ft
- IATA code : LUG


LSZA - Lugano

CURRENT METAR :
  • 141720Z VRB01KT CAVOK 11/10 Q1027 NOSIG

EXPIRED METARs :
  • 141650Z 33001KT CAVOK 12/10 Q1027 NOSIG
  • 141620Z VRB01KT CAVOK 13/11 Q1027 NOSIG
  • 141550Z VRB01KT CAVOK 13/11 Q1027 NOSIG
  • 141520Z 21002KT CAVOK 15/11 Q1027 NOSIG
  • 141450Z 20002KT 9999 FEW055 17/11 Q1027 NOSIG

TAF TAF LSZA
Valid from the 14 at 15:00 until the 15 at 00:00 UTC


141425Z 1415/1424 VRB03KT 9999 FEW055
BECMG 1415/1417 CAVOK
BECMG 1418/1420 7000 NSC
PROB40 1420/1424 4000 BR BKN008
ATIS : +41 22 417 40 88
No reported NOTAMs for that airfield.



MET'MAP, your aeronautical weather chart ! - Copyright ORBIFLY December 2007 - Disclaimer

ORBIFLY MET'MAP TEAM :

Programming & Development : Alexandra Zaïnal
Concept & Development : Baudouin d'Aumeries
Co-Development & Prog : Marc-Olivier Méhu
Technical & hardware support : Manuel Goepfert

Contact : metmap@orbifly.com




SOURCES & CREDITS :

   NOAA